Nippers Harbour, Canada
Current Conditions -  °F | °C
As of 2:00 PM on Sunday 23 Nov 2014 (Local Time) from CYDF Reporting Station
Snow Showers Snow Showers  
Wind Chill: 24°   Ceiling: 1500
Heat Index: 34°   Visibility: 3mi
Dew Point: 32°   Wind: 14mph
Humidity: 93%   Direction: 250°WSW
Pressure: 29.64"   Gusts: 22mph
Location:  49.78°N, 55.87°W
Report Text: CYDF 231700Z 25012G19KT 3SM -SHSNRA SCT005 BKN015 OVC020 01/M00 A2964 RMK SC4SC3SC1 PRESRR SLP039
Loading
Personal Weather Stations






























Interactive Weather Map New forecast layout! Learn more

10-Day Weather Forecast

Advertisements
Track Severe Weather on mobile